createdAt,value
2018-12-23T00:00:23.262Z,932.52
2018-12-23T00:01:23.228Z,932.49
2018-12-23T00:02:23.232Z,932.51
2018-12-23T00:03:23.235Z,932.48
2018-12-23T00:04:23.229Z,932.52
2018-12-23T00:05:23.212Z,932.52
2018-12-23T00:06:23.222Z,932.54
2018-12-23T00:07:23.172Z,932.56
2018-12-23T00:08:23.227Z,932.54
2018-12-23T00:09:23.201Z,932.57
2018-12-23T00:10:23.183Z,932.59
2018-12-23T00:11:23.158Z,932.58
2018-12-23T00:12:23.158Z,932.58
2018-12-23T00:13:23.158Z,932.56
2018-12-23T00:14:23.168Z,932.54
2018-12-23T00:15:23.156Z,932.57
2018-12-23T00:16:23.134Z,932.57
2018-12-23T00:17:23.141Z,932.58
2018-12-23T00:18:23.133Z,932.59
2018-12-23T00:19:23.128Z,932.57
2018-12-23T00:20:23.120Z,932.61
2018-12-23T00:21:23.157Z,932.61
2018-12-23T00:22:23.088Z,932.61
2018-12-23T00:23:23.136Z,932.59
2018-12-23T00:24:23.106Z,932.60
2018-12-23T00:25:23.087Z,932.55
2018-12-23T00:26:23.085Z,932.57
2018-12-23T00:27:23.091Z,932.53
2018-12-23T00:28:23.092Z,932.53
2018-12-23T00:29:23.112Z,932.54
2018-12-23T00:30:23.053Z,932.52
2018-12-23T00:31:23.053Z,932.55
2018-12-23T00:32:23.097Z,932.52
2018-12-23T00:33:23.094Z,932.55
2018-12-23T00:34:23.041Z,932.48
2018-12-23T00:35:23.079Z,932.47
2018-12-23T00:36:23.013Z,932.50
2018-12-23T00:37:23.038Z,932.53
2018-12-23T00:38:23.024Z,932.55
2018-12-23T00:39:23.003Z,932.57
2018-12-23T00:40:23.034Z,932.55
2018-12-23T00:41:22.997Z,932.56
2018-12-23T00:42:22.985Z,932.54
2018-12-23T00:43:23.000Z,932.56
2018-12-23T00:44:22.992Z,932.56
2018-12-23T00:45:22.975Z,932.56
2018-12-23T00:46:22.981Z,932.57
2018-12-23T00:47:22.950Z,932.56
2018-12-23T00:48:22.980Z,932.58
2018-12-23T00:49:22.941Z,932.56
2018-12-23T00:50:22.956Z,932.56
2018-12-23T00:51:22.946Z,932.57
2018-12-23T00:52:22.951Z,932.55
2018-12-23T00:53:22.934Z,932.60
2018-12-23T00:54:22.941Z,932.53
2018-12-23T00:55:22.921Z,932.59
2018-12-23T00:56:22.914Z,932.61
2018-12-23T00:57:22.900Z,932.72
2018-12-23T00:58:22.892Z,932.78
2018-12-23T00:59:22.895Z,932.88
2018-12-23T01:00:22.923Z,933.00
2018-12-23T01:01:22.900Z,933.07
2018-12-23T01:02:22.878Z,933.14
2018-12-23T01:03:22.873Z,933.14
2018-12-23T01:04:22.915Z,933.15
2018-12-23T01:05:28.691Z,933.15
2018-12-23T01:06:22.860Z,933.13
2018-12-23T01:07:22.876Z,933.11
2018-12-23T01:08:22.861Z,933.07
2018-12-23T01:09:22.890Z,933.11
2018-12-23T01:10:22.839Z,933.10
2018-12-23T01:11:22.839Z,933.12
2018-12-23T01:12:22.900Z,933.16
2018-12-23T01:13:22.806Z,933.18
2018-12-23T01:14:22.821Z,933.22
2018-12-23T01:15:22.836Z,933.18
2018-12-23T01:16:22.794Z,933.19
2018-12-23T01:17:22.796Z,933.21
2018-12-23T01:18:22.781Z,933.23
2018-12-23T01:19:22.799Z,933.22
2018-12-23T01:20:22.758Z,933.24
2018-12-23T01:21:22.755Z,933.27
2018-12-23T01:22:22.771Z,933.28
2018-12-23T01:23:22.771Z,933.27
2018-12-23T01:24:22.752Z,933.29
2018-12-23T01:25:22.746Z,933.26
2018-12-23T01:26:22.788Z,933.28
2018-12-23T01:27:22.730Z,933.29
2018-12-23T01:28:22.761Z,933.30
2018-12-23T01:29:22.742Z,933.35
2018-12-23T01:30:22.717Z,933.33
2018-12-23T01:31:22.719Z,933.34
2018-12-23T01:32:22.723Z,933.37
2018-12-23T01:33:22.716Z,933.41
2018-12-23T01:34:22.697Z,933.41
2018-12-23T01:35:22.687Z,933.44
2018-12-23T01:36:22.687Z,933.50
2018-12-23T01:37:22.692Z,933.47
2018-12-23T01:38:22.691Z,933.47
2018-12-23T01:39:22.651Z,933.50
2018-12-23T01:40:22.645Z,933.49
2018-12-23T01:41:22.663Z,933.51
2018-12-23T01:42:22.656Z,933.50
2018-12-23T01:43:22.657Z,933.50
2018-12-23T01:44:22.638Z,933.51
2018-12-23T01:45:22.637Z,933.51
2018-12-23T01:46:22.650Z,933.46
2018-12-23T01:47:22.632Z,933.45
2018-12-23T01:48:22.631Z,933.45
2018-12-23T01:49:22.630Z,933.44
2018-12-23T01:50:22.603Z,933.43
2018-12-23T01:51:22.610Z,933.42
2018-12-23T01:52:22.584Z,933.42
2018-12-23T01:53:22.580Z,933.39
2018-12-23T01:54:22.608Z,933.35
2018-12-23T01:55:22.594Z,933.34
2018-12-23T01:56:22.613Z,933.29
2018-12-23T01:57:22.569Z,933.22
2018-12-23T01:58:22.567Z,933.25
2018-12-23T01:59:22.558Z,933.23
2018-12-23T02:00:22.562Z,933.23
2018-12-23T02:01:22.568Z,933.23
2018-12-23T02:02:22.538Z,933.26
2018-12-23T02:03:22.543Z,933.28
2018-12-23T02:04:22.539Z,933.32
2018-12-23T02:05:22.506Z,933.32
2018-12-23T02:06:22.516Z,933.36
2018-12-23T02:07:22.505Z,933.38
2018-12-23T02:08:22.526Z,933.43
2018-12-23T02:09:22.511Z,933.44
2018-12-23T02:10:22.494Z,933.48
2018-12-23T02:11:22.501Z,933.50
2018-12-23T02:12:22.504Z,933.52
2018-12-23T02:13:22.490Z,933.53
2018-12-23T02:14:22.470Z,933.54
2018-12-23T02:15:22.479Z,933.56
2018-12-23T02:16:22.886Z,933.56
2018-12-23T02:17:22.442Z,933.59
2018-12-23T02:18:22.437Z,933.54
2018-12-23T02:19:22.438Z,933.60
2018-12-23T02:20:22.453Z,933.59
2018-12-23T02:21:22.459Z,933.58
2018-12-23T02:22:22.440Z,933.59
2018-12-23T02:23:22.400Z,933.57
2018-12-23T02:24:22.395Z,933.57
2018-12-23T02:25:22.425Z,933.56
2018-12-23T02:26:22.399Z,933.55
2018-12-23T02:27:22.398Z,933.56
2018-12-23T02:28:22.378Z,933.58
2018-12-23T02:29:22.388Z,933.56
2018-12-23T02:30:22.387Z,933.58
2018-12-23T02:31:22.398Z,933.57
2018-12-23T02:32:22.373Z,933.63
2018-12-23T02:33:22.366Z,933.58
2018-12-23T02:34:22.431Z,933.60
2018-12-23T02:35:22.345Z,933.66
2018-12-23T02:36:22.332Z,933.66
2018-12-23T02:37:22.343Z,933.71
2018-12-23T02:38:22.320Z,933.74
2018-12-23T02:39:22.324Z,933.78
2018-12-23T02:40:22.313Z,933.79
2018-12-23T02:41:31.225Z,933.80
2018-12-23T02:42:22.307Z,933.81
2018-12-23T02:43:22.302Z,933.83
2018-12-23T02:44:22.320Z,933.82
2018-12-23T02:45:22.310Z,933.80
2018-12-23T02:46:22.263Z,933.83
2018-12-23T02:47:22.291Z,933.83
2018-12-23T02:48:22.308Z,933.83
2018-12-23T02:49:22.271Z,933.85
2018-12-23T02:50:22.259Z,933.82
2018-12-23T02:51:22.269Z,933.78
2018-12-23T02:52:22.250Z,933.79
2018-12-23T02:53:22.243Z,933.80
2018-12-23T02:54:22.241Z,933.80
2018-12-23T02:55:22.233Z,933.79
2018-12-23T02:56:22.230Z,933.75
2018-12-23T02:57:22.228Z,933.74
2018-12-23T02:58:22.217Z,933.77
2018-12-23T02:59:22.289Z,933.78
2018-12-23T03:00:22.196Z,933.79
2018-12-23T03:01:22.186Z,933.81
2018-12-23T03:02:22.161Z,933.78
2018-12-23T03:03:22.211Z,933.76
2018-12-23T03:04:22.172Z,933.79
2018-12-23T03:05:22.213Z,933.75
2018-12-23T03:06:22.163Z,933.77
2018-12-23T03:07:22.150Z,933.75
2018-12-23T03:08:22.165Z,933.73
2018-12-23T03:09:22.129Z,933.76
2018-12-23T03:10:22.132Z,933.77
2018-12-23T03:11:22.130Z,933.76
2018-12-23T03:12:22.112Z,933.75
2018-12-23T03:13:22.108Z,933.75
2018-12-23T03:14:22.123Z,933.74
2018-12-23T03:15:22.125Z,933.74
2018-12-23T03:16:22.092Z,933.77
2018-12-23T03:17:22.086Z,933.75
2018-12-23T03:18:22.087Z,933.75
2018-12-23T03:19:22.089Z,933.74
2018-12-23T03:20:22.083Z,933.73
2018-12-23T03:21:22.089Z,933.75
2018-12-23T03:22:22.076Z,933.74
2018-12-23T03:23:22.065Z,933.78
2018-12-23T03:24:22.062Z,933.77
2018-12-23T03:25:22.079Z,933.74
2018-12-23T03:26:22.086Z,933.74
2018-12-23T03:27:22.032Z,933.75
2018-12-23T03:28:22.071Z,933.74
2018-12-23T03:29:22.029Z,933.70
2018-12-23T03:30:22.026Z,933.72
2018-12-23T03:31:22.071Z,933.71
2018-12-23T03:32:22.012Z,933.74
2018-12-23T03:33:21.994Z,933.77
2018-12-23T03:34:22.001Z,933.76
2018-12-23T03:35:21.993Z,933.72
2018-12-23T03:36:21.989Z,933.73
2018-12-23T03:37:21.996Z,933.73
2018-12-23T03:38:21.969Z,933.76
2018-12-23T03:39:21.950Z,933.74
2018-12-23T03:40:21.949Z,933.74
2018-12-23T03:41:21.957Z,933.77
2018-12-23T03:42:21.942Z,933.73
2018-12-23T03:43:21.935Z,933.74
2018-12-23T03:44:21.937Z,933.74
2018-12-23T03:45:21.930Z,933.70
2018-12-23T03:46:21.920Z,933.70
2018-12-23T03:47:21.954Z,933.68
2018-12-23T03:48:21.922Z,933.70
2018-12-23T03:49:21.918Z,933.73
2018-12-23T03:50:21.895Z,933.71
2018-12-23T03:51:21.928Z,933.67
2018-12-23T03:52:21.889Z,933.66
2018-12-23T03:53:21.884Z,933.74
2018-12-23T03:54:21.921Z,933.70
2018-12-23T03:55:21.883Z,933.74
2018-12-23T03:56:21.830Z,933.71
2018-12-23T03:57:21.898Z,933.71
2018-12-23T03:58:21.848Z,933.66
2018-12-23T03:59:21.867Z,933.68
2018-12-23T04:00:21.834Z,933.68
2018-12-23T04:01:21.833Z,933.68
2018-12-23T04:02:21.810Z,933.67
2018-12-23T04:03:21.867Z,933.66
2018-12-23T04:04:21.805Z,933.64
2018-12-23T04:05:21.789Z,933.58
2018-12-23T04:06:24.763Z,933.59
2018-12-23T04:07:21.803Z,933.59
2018-12-23T04:08:21.784Z,933.55
2018-12-23T04:09:21.827Z,933.57
2018-12-23T04:10:21.803Z,933.54
2018-12-23T04:11:21.770Z,933.55
2018-12-23T04:12:21.763Z,933.54
2018-12-23T04:13:21.759Z,933.56
2018-12-23T04:14:21.737Z,933.53
2018-12-23T04:15:21.743Z,933.49
2018-12-23T04:16:21.732Z,933.49
2018-12-23T04:17:21.714Z,933.49
2018-12-23T04:18:21.724Z,933.46
2018-12-23T04:19:21.707Z,933.47
2018-12-23T04:20:21.694Z,933.43
2018-12-23T04:21:21.695Z,933.45
2018-12-23T04:22:21.671Z,933.40
2018-12-23T04:23:21.679Z,933.39
2018-12-23T04:24:21.668Z,933.37
2018-12-23T04:25:21.699Z,933.36
2018-12-23T04:26:21.664Z,933.32
2018-12-23T04:27:21.633Z,933.29
2018-12-23T04:28:21.650Z,933.28
2018-12-23T04:29:21.648Z,933.27
2018-12-23T04:30:21.620Z,933.27
2018-12-23T04:31:21.610Z,933.22
2018-12-23T04:32:21.613Z,933.17
2018-12-23T04:33:21.599Z,933.20
2018-12-23T04:34:21.600Z,933.17
2018-12-23T04:35:21.586Z,933.19
2018-12-23T04:36:21.602Z,933.16
2018-12-23T04:37:21.584Z,933.16
2018-12-23T04:38:21.563Z,933.16
2018-12-23T04:39:21.557Z,933.13
2018-12-23T04:40:21.547Z,933.09
2018-12-23T04:41:21.550Z,933.08
2018-12-23T04:42:21.539Z,933.08
2018-12-23T04:43:21.530Z,933.05
2018-12-23T04:44:21.511Z,933.01
2018-12-23T04:45:21.524Z,933.06
2018-12-23T04:46:21.518Z,933.02
2018-12-23T04:47:21.510Z,932.95
2018-12-23T04:48:21.473Z,932.93
2018-12-23T04:49:21.539Z,932.91
2018-12-23T04:50:21.492Z,932.90
2018-12-23T04:51:21.477Z,932.89
2018-12-23T04:52:21.460Z,932.85
2018-12-23T04:53:21.464Z,932.90
2018-12-23T04:54:21.429Z,932.84
2018-12-23T04:55:21.586Z,932.83
2018-12-23T04:56:21.418Z,932.82
2018-12-23T04:57:21.443Z,932.75
2018-12-23T04:58:21.419Z,932.78
2018-12-23T04:59:21.409Z,932.75
2018-12-23T05:00:21.421Z,932.68
2018-12-23T05:01:21.396Z,932.69
2018-12-23T05:02:21.407Z,932.69
2018-12-23T05:03:21.375Z,932.67
2018-12-23T05:04:21.371Z,932.64
2018-12-23T05:05:21.370Z,932.57
2018-12-23T05:06:21.371Z,932.54
2018-12-23T05:07:21.357Z,932.46
2018-12-23T05:08:21.410Z,932.47
2018-12-23T05:09:21.346Z,932.46
2018-12-23T05:10:21.341Z,932.40
2018-12-23T05:11:21.311Z,932.41
2018-12-23T05:12:21.334Z,932.37
2018-12-23T05:13:21.303Z,932.37
2018-12-23T05:14:21.312Z,932.33
2018-12-23T05:15:21.296Z,932.31
2018-12-23T05:16:21.292Z,932.31
2018-12-23T05:17:21.299Z,932.30
2018-12-23T05:18:21.270Z,932.25
2018-12-23T05:19:21.258Z,932.21
2018-12-23T05:20:21.245Z,932.20
2018-12-23T05:21:21.243Z,932.18
2018-12-23T05:22:21.245Z,932.19
2018-12-23T05:23:21.226Z,932.16
2018-12-23T05:24:21.251Z,932.15
2018-12-23T05:25:21.217Z,932.10
2018-12-23T05:26:21.212Z,932.12
2018-12-23T05:27:21.221Z,932.10
2018-12-23T05:28:21.203Z,932.07
2018-12-23T05:29:21.191Z,932.03
2018-12-23T05:30:21.194Z,931.98
2018-12-23T05:31:21.175Z,931.97
2018-12-23T05:32:21.181Z,931.93
2018-12-23T05:33:21.186Z,931.92
2018-12-23T05:34:21.153Z,931.90
2018-12-23T05:35:21.195Z,931.89
2018-12-23T05:36:21.156Z,931.82
2018-12-23T05:37:21.176Z,931.80
2018-12-23T05:38:21.132Z,931.77
2018-12-23T05:39:21.102Z,931.78
2018-12-23T05:40:21.108Z,931.74
2018-12-23T05:41:21.089Z,931.71
2018-12-23T05:42:21.115Z,931.67
2018-12-23T05:43:21.075Z,931.67
2018-12-23T05:44:21.080Z,931.60
2018-12-23T05:45:21.067Z,931.61
2018-12-23T05:46:21.060Z,931.56
2018-12-23T05:47:21.042Z,931.52
2018-12-23T05:48:21.039Z,931.53
2018-12-23T05:49:21.086Z,931.53
2018-12-23T05:50:21.042Z,931.49
2018-12-23T05:51:21.037Z,931.49
2018-12-23T05:52:21.028Z,931.49
2018-12-23T05:53:21.021Z,931.50
2018-12-23T05:54:21.015Z,931.46
2018-12-23T05:55:20.985Z,931.45
2018-12-23T05:56:21.028Z,931.48
2018-12-23T05:57:20.991Z,931.43
2018-12-23T05:58:20.968Z,931.45
2018-12-23T05:59:20.955Z,931.42
2018-12-23T06:00:20.974Z,931.43
2018-12-23T06:01:21.003Z,931.42
2018-12-23T06:02:20.930Z,931.41
2018-12-23T06:03:20.946Z,931.38
2018-12-23T06:04:20.948Z,931.38
2018-12-23T06:05:20.963Z,931.37
2018-12-23T06:06:20.911Z,931.38
2018-12-23T06:07:20.933Z,931.35
2018-12-23T06:08:20.945Z,931.38
2018-12-23T06:09:20.904Z,931.36
2018-12-23T06:10:20.881Z,931.38
2018-12-23T06:11:20.878Z,931.34
2018-12-23T06:12:20.894Z,931.35
2018-12-23T06:13:20.867Z,931.36
2018-12-23T06:14:20.892Z,931.35
2018-12-23T06:15:20.849Z,931.34
2018-12-23T06:16:20.826Z,931.32
2018-12-23T06:17:20.814Z,931.32
2018-12-23T06:18:20.835Z,931.36
2018-12-23T06:19:20.807Z,931.37
2018-12-23T06:20:20.814Z,931.31
2018-12-23T06:21:20.821Z,931.32
2018-12-23T06:22:20.778Z,931.32
2018-12-23T06:23:20.788Z,931.31
2018-12-23T06:24:21.078Z,931.30
2018-12-23T06:25:20.795Z,931.30
2018-12-23T06:26:20.757Z,931.30
2018-12-23T06:27:20.769Z,931.29
2018-12-23T06:28:20.773Z,931.29
2018-12-23T06:29:20.731Z,931.28
2018-12-23T06:30:20.743Z,931.32
2018-12-23T06:31:20.730Z,931.30
2018-12-23T06:32:20.707Z,931.34
2018-12-23T06:33:20.719Z,931.29
2018-12-23T06:34:20.714Z,931.33
2018-12-23T06:35:21.007Z,931.32
2018-12-23T06:36:20.693Z,931.32
2018-12-23T06:37:20.707Z,931.33
2018-12-23T06:38:20.691Z,931.29
2018-12-23T06:39:20.662Z,931.33
2018-12-23T06:40:20.641Z,931.34
2018-12-23T06:41:20.687Z,931.31
2018-12-23T06:42:20.638Z,931.34
2018-12-23T06:43:20.641Z,931.33
2018-12-23T06:44:20.626Z,931.32
2018-12-23T06:45:20.612Z,931.29
2018-12-23T06:46:20.631Z,931.27
2018-12-23T06:47:20.625Z,931.22
2018-12-23T06:48:20.603Z,931.21
2018-12-23T06:49:20.588Z,931.20
2018-12-23T06:50:20.591Z,931.19
2018-12-23T06:51:20.601Z,931.17
2018-12-23T06:52:20.620Z,931.20
2018-12-23T06:53:20.545Z,931.23
2018-12-23T06:54:20.554Z,931.23
2018-12-23T06:55:20.549Z,931.23
2018-12-23T06:56:20.549Z,931.21
2018-12-23T06:57:20.570Z,931.23
2018-12-23T06:58:20.518Z,931.22
2018-12-23T06:59:20.510Z,931.21
2018-12-23T07:00:20.494Z,931.24
2018-12-23T07:01:20.519Z,931.24
2018-12-23T07:02:20.776Z,931.27
2018-12-23T07:03:20.469Z,931.27
2018-12-23T07:04:20.537Z,931.26
2018-12-23T07:05:20.470Z,931.25
2018-12-23T07:06:20.446Z,931.25
2018-12-23T07:07:20.466Z,931.30
2018-12-23T07:08:20.457Z,931.25
2018-12-23T07:09:20.436Z,931.28
2018-12-23T07:10:20.402Z,931.30
2018-12-23T07:11:20.408Z,931.27
2018-12-23T07:12:20.423Z,931.30
2018-12-23T07:13:20.396Z,931.32
2018-12-23T07:14:20.411Z,931.31
2018-12-23T07:15:20.399Z,931.35
2018-12-23T07:16:20.399Z,931.34
2018-12-23T07:17:20.664Z,931.32
2018-12-23T07:18:20.382Z,931.34
2018-12-23T07:19:20.344Z,931.32
2018-12-23T07:20:20.354Z,931.32
2018-12-23T07:21:20.318Z,931.33
2018-12-23T07:22:20.324Z,931.35
2018-12-23T07:23:20.310Z,931.34
2018-12-23T07:24:20.336Z,931.35
2018-12-23T07:25:20.326Z,931.33
2018-12-23T07:26:20.304Z,931.34
2018-12-23T07:27:20.292Z,931.35
2018-12-23T07:28:20.295Z,931.33
2018-12-23T07:29:20.316Z,931.34
2018-12-23T07:30:20.285Z,931.32
2018-12-23T07:31:20.263Z,931.31
2018-12-23T07:32:20.242Z,931.33
2018-12-23T07:33:20.263Z,931.34
2018-12-23T07:34:20.244Z,931.34
2018-12-23T07:35:20.228Z,931.26
2018-12-23T07:36:20.235Z,931.30
2018-12-23T07:37:27.271Z,931.30
2018-12-23T07:38:20.189Z,931.32
2018-12-23T07:39:20.225Z,931.31
2018-12-23T07:40:20.184Z,931.31
2018-12-23T07:41:20.200Z,931.36
2018-12-23T07:42:20.172Z,931.31
2018-12-23T07:43:20.179Z,931.35
2018-12-23T07:44:20.221Z,931.31
2018-12-23T07:45:20.153Z,931.31
2018-12-23T07:46:20.180Z,931.32
2018-12-23T07:47:20.165Z,931.29
2018-12-23T07:48:20.163Z,931.28
2018-12-23T07:49:20.128Z,931.31
2018-12-23T07:50:20.130Z,931.30
2018-12-23T07:51:20.117Z,931.32
2018-12-23T07:52:20.139Z,931.33
2018-12-23T07:53:20.108Z,931.36
2018-12-23T07:54:20.093Z,931.34
2018-12-23T07:55:20.079Z,931.36
2018-12-23T07:56:20.063Z,931.34
2018-12-23T07:57:20.114Z,931.32
2018-12-23T07:58:20.063Z,931.34
2018-12-23T07:59:20.039Z,931.35
2018-12-23T08:00:20.062Z,931.31
2018-12-23T08:01:20.035Z,931.37
2018-12-23T08:02:20.013Z,931.28
2018-12-23T08:03:20.037Z,931.33
2018-12-23T08:04:20.019Z,931.31
2018-12-23T08:05:19.995Z,931.32
2018-12-23T08:06:20.045Z,931.29
2018-12-23T08:07:19.990Z,931.35
2018-12-23T08:08:19.968Z,931.29
2018-12-23T08:09:19.973Z,931.30
2018-12-23T08:10:20.018Z,931.28
2018-12-23T08:11:19.956Z,931.30
2018-12-23T08:12:19.923Z,931.29
2018-12-23T08:13:19.948Z,931.30
2018-12-23T08:14:20.188Z,931.29
2018-12-23T08:15:19.912Z,931.34
2018-12-23T08:16:19.930Z,931.37
2018-12-23T08:17:19.921Z,931.37
2018-12-23T08:18:19.912Z,931.40
2018-12-23T08:19:19.884Z,931.40
2018-12-23T08:20:19.893Z,931.38
2018-12-23T08:21:19.895Z,931.40
2018-12-23T08:22:19.847Z,931.41
2018-12-23T08:23:19.851Z,931.40
2018-12-23T08:24:19.860Z,931.39
2018-12-23T08:25:19.826Z,931.44
2018-12-23T08:26:19.840Z,931.42
2018-12-23T08:27:19.825Z,931.45
2018-12-23T08:28:19.829Z,931.46
2018-12-23T08:29:19.862Z,931.49
2018-12-23T08:30:19.815Z,931.47
2018-12-23T08:31:19.807Z,931.45
2018-12-23T08:32:19.792Z,931.51
2018-12-23T08:33:19.766Z,931.53
2018-12-23T08:34:19.788Z,931.55
2018-12-23T08:35:19.773Z,931.53
2018-12-23T08:36:19.761Z,931.55
2018-12-23T08:37:19.743Z,931.54
2018-12-23T08:38:19.743Z,931.53
2018-12-23T08:39:19.748Z,931.50
2018-12-23T08:40:19.770Z,931.51
2018-12-23T08:41:19.736Z,931.54
2018-12-23T08:42:19.709Z,931.50
2018-12-23T08:43:19.695Z,931.54
2018-12-23T08:44:19.705Z,931.52
2018-12-23T08:45:19.703Z,931.55
2018-12-23T08:46:19.685Z,931.56
2018-12-23T08:47:19.690Z,931.54
2018-12-23T08:48:19.661Z,931.58
2018-12-23T08:49:19.673Z,931.54
2018-12-23T08:50:19.675Z,931.61
2018-12-23T08:51:19.666Z,931.60
2018-12-23T08:52:19.690Z,931.58
2018-12-23T08:53:19.624Z,931.59
2018-12-23T08:54:19.608Z,931.60
2018-12-23T08:55:19.618Z,931.60
2018-12-23T08:56:19.620Z,931.59
2018-12-23T08:57:19.625Z,931.62
2018-12-23T08:58:19.605Z,931.60
2018-12-23T08:59:19.576Z,931.60
2018-12-23T09:00:19.867Z,931.60
2018-12-23T09:01:19.572Z,931.61
2018-12-23T09:02:19.552Z,931.66
2018-12-23T09:03:19.546Z,931.63
2018-12-23T09:04:19.565Z,931.64
2018-12-23T09:05:19.553Z,931.65
2018-12-23T09:06:19.533Z,931.63
2018-12-23T09:07:19.537Z,931.65
2018-12-23T09:08:19.539Z,931.63
2018-12-23T09:09:19.536Z,931.61
2018-12-23T09:10:19.515Z,931.66
2018-12-23T09:11:19.741Z,931.67
2018-12-23T09:12:19.550Z,931.66
2018-12-23T09:13:19.496Z,931.69
2018-12-23T09:14:19.463Z,931.70
2018-12-23T09:15:19.454Z,931.72
2018-12-23T09:16:19.492Z,931.71
2018-12-23T09:17:19.458Z,931.68
2018-12-23T09:18:19.693Z,931.69
2018-12-23T09:19:19.493Z,931.67
2018-12-23T09:20:19.427Z,931.66
2018-12-23T09:21:19.414Z,931.66
2018-12-23T09:22:19.838Z,931.71
2018-12-23T09:23:19.429Z,931.72
2018-12-23T09:24:19.467Z,931.73
2018-12-23T09:25:19.426Z,931.75
2018-12-23T09:26:19.405Z,931.77
2018-12-23T09:27:19.373Z,931.77
2018-12-23T09:28:19.381Z,931.74
2018-12-23T09:29:19.391Z,931.77
2018-12-23T09:30:19.360Z,931.73
2018-12-23T09:31:19.350Z,931.74
2018-12-23T09:32:19.355Z,931.76
2018-12-23T09:33:19.347Z,931.75
2018-12-23T09:34:19.355Z,931.75
2018-12-23T09:35:19.322Z,931.75
2018-12-23T09:36:19.326Z,931.85
2018-12-23T09:37:19.366Z,931.82
2018-12-23T09:38:19.293Z,931.86
2018-12-23T09:39:19.296Z,931.82
2018-12-23T09:40:19.295Z,931.80
2018-12-23T09:41:19.286Z,931.85
2018-12-23T09:42:19.268Z,931.82
2018-12-23T09:43:19.249Z,931.86
2018-12-23T09:44:19.251Z,931.82
2018-12-23T09:45:19.288Z,931.86
2018-12-23T09:46:19.246Z,931.87
2018-12-23T09:47:19.281Z,931.90
2018-12-23T09:48:19.252Z,931.93
2018-12-23T09:49:19.230Z,931.97
2018-12-23T09:50:19.212Z,931.97
2018-12-23T09:51:19.215Z,931.96
2018-12-23T09:52:19.214Z,931.97
2018-12-23T09:53:19.205Z,931.96
2018-12-23T09:54:19.213Z,932.00
2018-12-23T09:55:19.208Z,932.02
2018-12-23T09:56:19.217Z,932.03
2018-12-23T09:57:19.166Z,932.02
2018-12-23T09:58:19.154Z,931.99
2018-12-23T09:59:19.150Z,932.07
2018-12-23T10:00:19.129Z,932.05
2018-12-23T10:01:19.149Z,932.04
2018-12-23T10:02:19.118Z,932.08
2018-12-23T10:03:19.120Z,932.12
2018-12-23T10:04:19.120Z,932.13
2018-12-23T10:05:19.118Z,932.14
2018-12-23T10:06:19.104Z,932.13
2018-12-23T10:07:19.106Z,932.13
2018-12-23T10:08:19.106Z,932.14
2018-12-23T10:09:19.115Z,932.17
2018-12-23T10:10:19.072Z,932.15
2018-12-23T10:11:19.056Z,932.20
2018-12-23T10:12:19.068Z,932.17
2018-12-23T10:13:19.052Z,932.20
2018-12-23T10:14:19.123Z,932.18
2018-12-23T10:15:19.046Z,932.16
2018-12-23T10:16:19.048Z,932.12
2018-12-23T10:17:19.045Z,932.15
2018-12-23T10:18:19.025Z,932.14
2018-12-23T10:19:19.019Z,932.15
2018-12-23T10:20:19.019Z,932.14
2018-12-23T10:21:18.985Z,932.11
2018-12-23T10:22:19.009Z,932.14
2018-12-23T10:23:18.990Z,932.14
2018-12-23T10:24:18.975Z,932.12
2018-12-23T10:25:18.962Z,932.16
2018-12-23T10:26:18.953Z,932.11
2018-12-23T10:27:18.957Z,932.15
2018-12-23T10:28:18.973Z,932.13
2018-12-23T10:29:18.946Z,932.17
2018-12-23T10:30:18.951Z,932.13
2018-12-23T10:31:18.935Z,932.14
2018-12-23T10:32:18.941Z,932.18
2018-12-23T10:33:18.930Z,932.16
2018-12-23T10:34:18.949Z,932.16
2018-12-23T10:35:18.900Z,932.19
2018-12-23T10:36:18.895Z,932.17
2018-12-23T10:37:18.911Z,932.19
2018-12-23T10:38:18.884Z,932.19
2018-12-23T10:39:18.897Z,932.19
2018-12-23T10:40:18.877Z,932.22
2018-12-23T10:41:18.869Z,932.20
2018-12-23T10:42:18.837Z,932.20
2018-12-23T10:43:18.850Z,932.20
2018-12-23T10:44:18.831Z,932.21
2018-12-23T10:45:18.860Z,932.25
2018-12-23T10:46:18.884Z,932.27
2018-12-23T10:47:18.836Z,932.26
2018-12-23T10:48:18.815Z,932.28
2018-12-23T10:49:18.820Z,932.28
2018-12-23T10:50:18.824Z,932.31
2018-12-23T10:51:18.823Z,932.33
2018-12-23T10:52:18.806Z,932.35
2018-12-23T10:53:18.806Z,932.31
2018-12-23T10:54:18.790Z,932.37
2018-12-23T10:55:18.799Z,932.33
2018-12-23T10:56:18.785Z,932.34
2018-12-23T10:57:18.784Z,932.35
2018-12-23T10:58:18.769Z,932.40
2018-12-23T10:59:18.739Z,932.42
2018-12-23T11:00:18.741Z,932.40
2018-12-23T11:01:18.729Z,932.42
2018-12-23T11:02:18.740Z,932.34
2018-12-23T11:03:18.758Z,932.38
2018-12-23T11:04:18.786Z,932.44
2018-12-23T11:05:18.742Z,932.42
2018-12-23T11:06:18.697Z,932.41
2018-12-23T11:07:18.749Z,932.46
2018-12-23T11:08:26.744Z,932.42
2018-12-23T11:09:18.706Z,932.39
2018-12-23T11:10:18.685Z,932.42
2018-12-23T11:11:18.707Z,932.39
2018-12-23T11:12:18.698Z,932.43
2018-12-23T11:13:18.686Z,932.45
2018-12-23T11:14:18.675Z,932.47
2018-12-23T11:15:18.722Z,932.41
2018-12-23T11:16:18.672Z,932.44
2018-12-23T11:17:18.944Z,932.41
2018-12-23T11:18:18.644Z,932.42
2018-12-23T11:19:18.631Z,932.41
2018-12-23T11:20:18.651Z,932.40
2018-12-23T11:21:18.619Z,932.38
2018-12-23T11:22:18.628Z,932.37
2018-12-23T11:23:18.620Z,932.42
2018-12-23T11:24:18.630Z,932.40
2018-12-23T11:25:18.612Z,932.41
2018-12-23T11:26:18.596Z,932.46
2018-12-23T11:27:18.597Z,932.48
2018-12-23T11:28:18.605Z,932.47
2018-12-23T11:29:18.584Z,932.52
2018-12-23T11:30:18.561Z,932.52
2018-12-23T11:31:18.581Z,932.51
2018-12-23T11:32:18.568Z,932.53
2018-12-23T11:33:18.563Z,932.52
2018-12-23T11:34:18.563Z,932.45
2018-12-23T11:35:18.589Z,932.53
2018-12-23T11:36:18.541Z,932.56
2018-12-23T11:37:18.535Z,932.57
2018-12-23T11:38:18.529Z,932.58
2018-12-23T11:39:18.535Z,932.58
2018-12-23T11:40:18.521Z,932.59
2018-12-23T11:41:18.522Z,932.63
2018-12-23T11:42:18.521Z,932.59
2018-12-23T11:43:18.521Z,932.62
2018-12-23T11:44:18.507Z,932.64
2018-12-23T11:45:18.508Z,932.63
2018-12-23T11:46:18.502Z,932.66
2018-12-23T11:47:18.496Z,932.66
2018-12-23T11:48:18.473Z,932.69
2018-12-23T11:49:18.489Z,932.71
2018-12-23T11:50:18.483Z,932.74
2018-12-23T11:51:18.513Z,932.72
2018-12-23T11:52:18.486Z,932.78
2018-12-23T11:53:18.466Z,932.76
2018-12-23T11:54:18.486Z,932.79
2018-12-23T11:55:18.422Z,932.81
2018-12-23T11:56:18.448Z,932.81
2018-12-23T11:57:18.431Z,932.78
2018-12-23T11:58:18.435Z,932.81
2018-12-23T11:59:18.440Z,932.82
2018-12-23T12:00:18.428Z,932.82
2018-12-23T12:01:18.408Z,932.85
2018-12-23T12:02:18.426Z,932.87
2018-12-23T12:03:18.414Z,932.86
2018-12-23T12:04:18.406Z,932.86
2018-12-23T12:05:18.407Z,932.90
2018-12-23T12:06:18.397Z,932.92
2018-12-23T12:07:18.384Z,932.96
2018-12-23T12:08:18.389Z,932.94
2018-12-23T12:09:18.400Z,932.97
2018-12-23T12:10:18.389Z,932.97
2018-12-23T12:11:18.380Z,932.97
2018-12-23T12:12:18.366Z,932.98
2018-12-23T12:13:18.375Z,932.98
2018-12-23T12:14:18.358Z,933.01
2018-12-23T12:15:18.351Z,933.00
2018-12-23T12:16:18.359Z,932.98
2018-12-23T12:17:18.337Z,933.03
2018-12-23T12:18:18.337Z,933.02
2018-12-23T12:19:18.335Z,933.03
2018-12-23T12:20:18.334Z,933.04
2018-12-23T12:21:18.331Z,933.05
2018-12-23T12:22:18.335Z,933.06
2018-12-23T12:23:18.321Z,933.03
2018-12-23T12:24:18.308Z,933.02
2018-12-23T12:25:18.311Z,933.07
2018-12-23T12:26:18.301Z,933.04
2018-12-23T12:27:18.301Z,933.08
2018-12-23T12:28:18.294Z,933.07